Terminal Aerodrome Forecast
Issued by NWS

Home | Current Version | Previous Version | Text Only | Print | Product List | Glossary On
Versions: 1 2 3 4 5 6 7 8 9 10 11 12 13
000
FTAK31 PAJN 311700
TAFAWG
TAF
PAWG 311721Z 3118/0118 11012G16KT P6SM VCSH SCT015 BKN035
     FM312200 12012KT P6SM -SHRA SCT015 OVC030
     FM010900 12015G22KT 6SM -RA SCT015 OVC025 WS020/15030KT
     FM011500 11012G18KT 5SM -RA BR BKN015 OVC025 WS020/15040KT
      AMD LTD TO CLD VIS AND WIND 0106/0115=

USA.gov is the U.S. government's official web portal to all federal, state and local government web resources and services.